createdAt,value
2023-02-21T00:02:03.946Z,12.65
2023-02-21T00:04:49.813Z,12.25
2023-02-21T00:07:37.567Z,11.10
2023-02-21T00:10:23.797Z,11.98
2023-02-21T00:13:09.706Z,10.70
2023-02-21T00:15:55.203Z,11.77
2023-02-21T00:18:40.462Z,12.50
2023-02-21T00:21:25.616Z,10.70
2023-02-21T00:24:12.344Z,12.30
2023-02-21T00:26:57.735Z,13.73
2023-02-21T00:29:43.016Z,14.13
2023-02-21T00:32:28.530Z,11.75
2023-02-21T00:35:14.373Z,12.98
2023-02-21T00:37:59.768Z,12.02
2023-02-21T00:40:46.533Z,12.48
2023-02-21T00:43:31.897Z,13.55
2023-02-21T00:46:17.370Z,11.57
2023-02-21T00:49:02.486Z,14.15
2023-02-21T00:51:48.884Z,14.18
2023-02-21T00:54:34.132Z,13.77
2023-02-21T00:57:20.736Z,17.55
2023-02-21T01:00:06.096Z,11.15
2023-02-21T01:02:51.548Z,12.32
2023-02-21T01:05:36.947Z,13.63
2023-02-21T01:08:22.153Z,13.32
2023-02-21T01:11:07.536Z,13.32
2023-02-21T01:13:54.801Z,13.85
2023-02-21T01:16:42.003Z,15.52
2023-02-21T01:19:27.440Z,14.85
2023-02-21T01:22:12.806Z,16.20
2023-02-21T01:24:58.113Z,14.98
2023-02-21T01:27:43.561Z,14.73
2023-02-21T01:30:30.613Z,13.98
2023-02-21T01:33:16.313Z,13.45
2023-02-21T01:36:01.882Z,12.80
2023-02-21T01:38:47.083Z,13.73
2023-02-21T01:41:32.464Z,12.38
2023-02-21T01:44:20.410Z,13.23
2023-02-21T01:47:07.355Z,13.93
2023-02-21T01:49:55.243Z,13.65
2023-02-21T01:52:41.637Z,15.55
2023-02-21T01:55:27.869Z,12.70
2023-02-21T01:58:14.655Z,13.93
2023-02-21T02:01:01.403Z,13.15
2023-02-21T02:03:49.490Z,12.23
2023-02-21T02:06:36.258Z,12.50
2023-02-21T02:09:33.189Z,13.20
2023-02-21T02:12:25.037Z,14.10
2023-02-21T02:15:17.192Z,11.98
2023-02-21T02:18:02.681Z,12.88
2023-02-21T02:21:17.604Z,13.35
2023-02-21T02:24:27.200Z,13.55
2023-02-21T02:27:38.926Z,14.18
2023-02-21T02:30:50.409Z,15.13
2023-02-21T02:34:09.481Z,13.43
2023-02-21T02:36:43.431Z,15.10
2023-02-21T02:39:23.096Z,13.63
2023-02-21T02:41:59.079Z,16.40
2023-02-21T02:44:32.758Z,14.52
2023-02-21T02:47:03.150Z,15.75
2023-02-21T02:49:34.866Z,15.13
2023-02-21T02:52:07.034Z,15.07
2023-02-21T02:54:35.290Z,16.45
2023-02-21T02:57:10.391Z,16.38
2023-02-21T02:59:41.843Z,16.92
2023-02-21T03:02:26.646Z,16.08
2023-02-21T03:05:09.196Z,17.75
2023-02-21T03:07:53.325Z,17.58
2023-02-21T03:10:28.622Z,15.75
2023-02-21T03:13:04.847Z,17.17
2023-02-21T03:15:39.891Z,16.60
2023-02-21T03:18:12.911Z,17.67
2023-02-21T03:20:43.124Z,14.88
2023-02-21T03:23:15.327Z,16.17
2023-02-21T03:25:44.981Z,15.80
2023-02-21T03:28:14.318Z,14.90
2023-02-21T03:30:47.695Z,16.35
2023-02-21T03:33:15.733Z,15.63
2023-02-21T03:35:43.737Z,14.23
2023-02-21T03:38:13.963Z,15.27
2023-02-21T03:40:42.286Z,16.58
2023-02-21T03:43:10.434Z,16.20
2023-02-21T03:45:50.719Z,12.63
2023-02-21T03:48:31.049Z,15.93
2023-02-21T03:51:03.766Z,14.98
2023-02-21T03:53:38.291Z,14.98
2023-02-21T03:56:08.392Z,16.73
2023-02-21T03:58:55.551Z,16.30
2023-02-21T04:01:24.364Z,15.88
2023-02-21T04:03:53.108Z,16.00
2023-02-21T04:06:21.965Z,17.70
2023-02-21T04:08:52.348Z,15.07
2023-02-21T04:11:22.175Z,15.35
2023-02-21T04:13:52.311Z,16.42
2023-02-21T04:16:20.419Z,16.27
2023-02-21T04:18:50.195Z,15.70
2023-02-21T04:21:18.883Z,18.17
2023-02-21T04:23:47.342Z,18.23
2023-02-21T04:26:18.307Z,18.90
2023-02-21T04:28:51.326Z,16.70
2023-02-21T04:31:20.240Z,16.25
2023-02-21T04:33:48.802Z,16.27
2023-02-21T04:36:23.053Z,15.98
2023-02-21T04:38:51.953Z,16.50
2023-02-21T04:41:21.651Z,17.17
2023-02-21T04:43:49.639Z,15.82
2023-02-21T04:46:19.009Z,16.30
2023-02-21T04:48:49.076Z,18.00
2023-02-21T04:51:19.994Z,16.02
2023-02-21T04:53:49.407Z,15.43
2023-02-21T04:56:20.931Z,17.80
2023-02-21T04:58:50.645Z,14.57
2023-02-21T05:01:20.913Z,15.35
2023-02-21T05:03:49.230Z,16.08
2023-02-21T05:06:20.717Z,17.50
2023-02-21T05:08:48.589Z,15.35
2023-02-21T05:11:17.059Z,15.48
2023-02-21T05:13:45.928Z,15.90
2023-02-21T05:16:15.339Z,12.38
2023-02-21T05:18:43.621Z,14.60
2023-02-21T05:21:11.943Z,12.95
2023-02-21T05:23:41.091Z,14.57
2023-02-21T05:26:12.657Z,14.50
2023-02-21T05:28:42.198Z,14.48
2023-02-21T05:31:10.242Z,14.63
2023-02-21T05:33:39.483Z,12.90
2023-02-21T05:36:08.071Z,13.85
2023-02-21T05:38:45.675Z,14.45
2023-02-21T05:41:13.916Z,12.30
2023-02-21T05:43:44.561Z,13.25
2023-02-21T05:46:21.175Z,14.05
2023-02-21T05:48:50.788Z,14.80
2023-02-21T05:51:19.581Z,13.80
2023-02-21T05:53:47.686Z,14.38
2023-02-21T05:56:16.274Z,14.00
2023-02-21T05:58:44.467Z,14.20
2023-02-21T06:01:12.626Z,15.05
2023-02-21T06:03:40.753Z,13.40
2023-02-21T06:06:10.121Z,13.48
2023-02-21T06:08:44.681Z,12.63
2023-02-21T06:11:13.260Z,14.05
2023-02-21T06:13:41.953Z,13.45
2023-02-21T06:16:10.015Z,13.27
2023-02-21T06:18:37.954Z,14.85
2023-02-21T06:21:06.256Z,13.85
2023-02-21T06:23:35.477Z,13.80
2023-02-21T06:26:03.385Z,13.77
2023-02-21T06:28:31.836Z,13.88
2023-02-21T06:30:59.718Z,12.48
2023-02-21T06:33:27.783Z,12.73
2023-02-21T06:35:55.753Z,16.23
2023-02-21T06:38:23.997Z,12.70
2023-02-21T06:40:53.216Z,14.43
2023-02-21T06:43:21.186Z,13.85
2023-02-21T06:45:49.077Z,12.52
2023-02-21T06:48:17.387Z,14.32
2023-02-21T06:50:45.822Z,12.82
2023-02-21T06:53:13.705Z,13.43
2023-02-21T06:55:41.728Z,13.32
2023-02-21T06:58:11.037Z,13.77
2023-02-21T07:00:38.918Z,14.85
2023-02-21T07:03:07.167Z,12.73
2023-02-21T07:05:36.812Z,13.85
2023-02-21T07:08:05.135Z,12.07
2023-02-21T07:10:33.041Z,12.70
2023-02-21T07:13:00.905Z,13.57
2023-02-21T07:15:30.240Z,12.57
2023-02-21T07:17:58.294Z,13.32
2023-02-21T07:20:26.198Z,14.07
2023-02-21T07:22:54.317Z,12.05
2023-02-21T07:25:23.519Z,15.18
2023-02-21T07:27:52.748Z,11.55
2023-02-21T07:30:20.903Z,12.65
2023-02-21T07:32:50.303Z,12.10
2023-02-21T07:35:18.286Z,14.05
2023-02-21T07:37:46.170Z,14.30
2023-02-21T07:40:14.059Z,12.70
2023-02-21T07:42:43.964Z,11.77
2023-02-21T07:45:12.231Z,13.52
2023-02-21T07:47:40.165Z,12.55
2023-02-21T07:50:09.884Z,13.57
2023-02-21T07:52:37.933Z,13.65
2023-02-21T07:55:06.623Z,13.20
2023-02-21T07:57:34.540Z,54.72
2023-02-21T08:00:02.535Z,12.20
2023-02-21T08:02:40.996Z,14.57
2023-02-21T08:05:10.860Z,11.32
2023-02-21T08:07:38.768Z,13.85
2023-02-21T08:10:07.426Z,14.32
2023-02-21T08:12:35.308Z,14.25
2023-02-21T08:15:03.262Z,13.63
2023-02-21T08:17:31.144Z,13.77
2023-02-21T08:19:59.174Z,13.70
2023-02-21T08:22:28.532Z,15.70
2023-02-21T08:24:56.679Z,13.00
2023-02-21T08:27:24.560Z,13.52
2023-02-21T08:29:53.635Z,12.70
2023-02-21T08:32:21.798Z,13.85
2023-02-21T08:34:50.833Z,12.93
2023-02-21T08:37:19.868Z,13.02
2023-02-21T08:39:52.032Z,12.30
2023-02-21T08:42:20.383Z,12.15
2023-02-21T08:44:48.541Z,13.40
2023-02-21T08:47:18.210Z,11.20
2023-02-21T08:49:47.339Z,13.27
2023-02-21T08:52:17.238Z,14.13
2023-02-21T08:54:45.756Z,11.88
2023-02-21T08:57:15.718Z,12.32
2023-02-21T08:59:45.127Z,12.30
2023-02-21T09:02:17.230Z,12.63
2023-02-21T09:04:46.030Z,11.93
2023-02-21T09:07:15.017Z,10.68
2023-02-21T09:09:43.051Z,12.70
2023-02-21T09:12:11.572Z,10.93
2023-02-21T09:14:42.672Z,9.93
2023-02-21T09:17:13.194Z,12.60
2023-02-21T09:19:41.542Z,11.82
2023-02-21T09:22:10.680Z,10.88
2023-02-21T09:24:40.562Z,10.93
2023-02-21T09:27:08.573Z,12.43
2023-02-21T09:29:45.822Z,12.18
2023-02-21T09:32:15.856Z,11.52
2023-02-21T09:34:43.782Z,12.20
2023-02-21T09:37:11.761Z,11.68
2023-02-21T09:39:40.347Z,11.20
2023-02-21T09:42:08.487Z,10.32
2023-02-21T09:44:36.648Z,12.52
2023-02-21T09:47:07.139Z,11.30
2023-02-21T09:49:40.134Z,10.88
2023-02-21T09:52:16.947Z,11.07
2023-02-21T09:54:48.352Z,11.35
2023-02-21T09:57:19.080Z,11.80
2023-02-21T09:59:47.361Z,11.30
2023-02-21T10:02:38.640Z,11.90
2023-02-21T10:05:19.387Z,10.18
2023-02-21T10:07:55.584Z,10.48
2023-02-21T10:10:32.686Z,9.63
2023-02-21T10:13:07.624Z,9.05
2023-02-21T10:15:44.994Z,11.30
2023-02-21T10:18:23.135Z,11.13
2023-02-21T10:20:54.690Z,10.27
2023-02-21T10:23:28.206Z,10.35
2023-02-21T10:28:27.492Z,10.07
2023-02-21T10:30:59.897Z,10.13
2023-02-21T10:33:28.246Z,9.90
2023-02-21T10:35:57.539Z,10.15
2023-02-21T10:38:27.352Z,10.57
2023-02-21T10:40:58.163Z,8.93
2023-02-21T10:43:31.799Z,10.65
2023-02-21T10:46:03.941Z,9.25
2023-02-21T10:48:37.326Z,9.00
2023-02-21T10:51:12.417Z,11.23
2023-02-21T10:53:42.090Z,9.00
2023-02-21T10:56:29.303Z,9.73
2023-02-21T10:59:00.718Z,8.07
2023-02-21T11:01:43.964Z,9.13
2023-02-21T11:04:28.142Z,9.55
2023-02-21T11:06:59.348Z,9.52
2023-02-21T11:09:37.813Z,9.60
2023-02-21T11:12:17.469Z,10.35
2023-02-21T11:15:03.813Z,8.52
2023-02-21T11:17:33.240Z,9.15
2023-02-21T11:20:07.922Z,10.32
2023-02-21T11:22:42.685Z,8.77
2023-02-21T11:25:22.089Z,9.88
2023-02-21T11:28:02.205Z,9.10
2023-02-21T11:30:32.202Z,10.05
2023-02-21T11:33:01.949Z,10.10
2023-02-21T11:35:33.385Z,7.80
2023-02-21T11:38:04.749Z,9.13
2023-02-21T11:40:41.752Z,10.73
2023-02-21T11:43:22.796Z,7.88
2023-02-21T11:46:02.506Z,8.65
2023-02-21T11:48:36.799Z,9.05
2023-02-21T11:51:09.608Z,8.93
2023-02-21T11:53:43.498Z,7.93
2023-02-21T11:56:21.304Z,7.93
2023-02-21T11:58:59.660Z,7.05
2023-02-21T12:01:34.030Z,6.65
2023-02-21T12:04:29.843Z,6.82
2023-02-21T12:07:09.649Z,6.60
2023-02-21T12:09:48.102Z,7.93
2023-02-21T12:12:42.474Z,7.15
2023-02-21T12:15:22.584Z,6.82
2023-02-21T12:18:06.806Z,6.75
2023-02-21T12:20:52.114Z,6.43
2023-02-21T12:23:28.419Z,7.07
2023-02-21T12:26:11.962Z,6.38
2023-02-21T12:28:54.889Z,5.95
2023-02-21T12:31:40.517Z,7.18
2023-02-21T12:34:22.624Z,5.50
2023-02-21T12:37:06.686Z,5.45
2023-02-21T12:39:49.311Z,5.95
2023-02-21T12:43:04.601Z,5.85
2023-02-21T12:45:47.745Z,5.25
2023-02-21T12:48:22.249Z,6.32
2023-02-21T12:50:53.913Z,5.70
2023-02-21T12:53:27.433Z,4.68
2023-02-21T12:56:04.823Z,5.43
2023-02-21T12:58:39.169Z,5.35
2023-02-21T13:01:15.989Z,5.53
2023-02-21T13:03:55.264Z,5.88
2023-02-21T13:06:31.427Z,5.03
2023-02-21T13:09:21.996Z,5.43
2023-02-21T13:11:58.823Z,5.40
2023-02-21T13:14:31.630Z,5.38
2023-02-21T13:17:01.371Z,4.78
2023-02-21T13:19:38.082Z,5.40
2023-02-21T13:22:48.182Z,5.90
2023-02-21T13:25:50.597Z,5.05
2023-02-21T13:28:20.362Z,5.07
2023-02-21T13:30:52.504Z,4.60
2023-02-21T13:33:29.643Z,4.80
2023-02-21T13:36:00.007Z,5.53
2023-02-21T13:38:30.554Z,6.95
2023-02-21T13:41:09.894Z,5.65
2023-02-21T13:43:46.246Z,6.03
2023-02-21T13:46:26.506Z,6.72
2023-02-21T13:49:31.769Z,6.25
2023-02-21T13:55:06.126Z,5.43
2023-02-21T13:57:36.110Z,6.97
2023-02-21T14:00:33.361Z,5.95
2023-02-21T14:03:02.377Z,7.20
2023-02-21T14:05:50.447Z,7.30
2023-02-21T14:08:20.521Z,6.57
2023-02-21T14:10:49.872Z,7.30
2023-02-21T14:13:24.793Z,7.28
2023-02-21T14:15:58.195Z,7.22
2023-02-21T14:18:28.036Z,6.63
2023-02-21T14:20:56.859Z,7.68
2023-02-21T14:23:25.562Z,8.05
2023-02-21T14:25:59.686Z,6.85
2023-02-21T14:28:46.278Z,7.93
2023-02-21T14:31:15.763Z,8.48
2023-02-21T14:33:44.255Z,7.13
2023-02-21T14:36:14.993Z,7.43
